createdAt,value
2022-12-05T00:00:43.694Z,99860.06
2022-12-05T00:01:47.164Z,99859.28
2022-12-05T00:02:50.904Z,99858.41
2022-12-05T00:03:57.542Z,99852.19
2022-12-05T00:05:01.333Z,99859.28
2022-12-05T00:06:05.313Z,99851.44
2022-12-05T00:07:08.805Z,99853.91
2022-12-05T00:08:12.650Z,99851.44
2022-12-05T00:09:16.293Z,99856.69
2022-12-05T00:10:20.701Z,99865.38
2022-12-05T00:11:28.883Z,99868.19
2022-12-05T00:12:32.993Z,99857.69
2022-12-05T00:13:36.944Z,99859.34
2022-12-05T00:14:40.584Z,99849.06
2022-12-05T00:15:44.096Z,99851.69
2022-12-05T00:16:47.672Z,99849.13
2022-12-05T00:17:51.186Z,99858.78
2022-12-05T00:18:55.297Z,99855.22
2022-12-05T00:19:59.281Z,99850.00
2022-12-05T00:21:04.044Z,99852.63
2022-12-05T00:22:07.485Z,99848.09
2022-12-05T00:23:10.941Z,99847.38
2022-12-05T00:24:16.688Z,99850.94
2022-12-05T00:25:20.289Z,99853.53
2022-12-05T00:26:24.531Z,99853.41
2022-12-05T00:27:27.976Z,99849.06
2022-12-05T00:28:33.472Z,99844.66
2022-12-05T00:29:37.406Z,99841.31
2022-12-05T00:30:41.453Z,99842.97
2022-12-05T00:31:45.104Z,99841.19
2022-12-05T00:32:48.540Z,99839.59
2022-12-05T00:33:53.566Z,99847.41
2022-12-05T00:34:57.209Z,99842.22
2022-12-05T00:36:14.341Z,99844.00
2022-12-05T00:37:17.758Z,99842.03
2022-12-05T00:38:21.197Z,99839.41
2022-12-05T00:39:24.697Z,99840.28
2022-12-05T00:40:28.197Z,99840.28
2022-12-05T00:41:31.993Z,99835.09
2022-12-05T00:42:35.407Z,99834.25
2022-12-05T00:43:39.212Z,99830.56
2022-12-05T00:44:42.786Z,99831.50
2022-12-05T00:45:46.460Z,99835.72
2022-12-05T00:46:50.686Z,99831.56
2022-12-05T00:47:54.244Z,99821.84
2022-12-05T00:48:59.658Z,99826.91
2022-12-05T00:50:05.858Z,99829.59
2022-12-05T00:51:20.912Z,99829.59
2022-12-05T00:52:24.740Z,99832.16
2022-12-05T00:53:28.078Z,99834.78
2022-12-05T00:54:31.476Z,99825.88
2022-12-05T00:55:37.955Z,99831.09
2022-12-05T00:56:42.911Z,99830.16
2022-12-05T00:57:46.379Z,99828.44
2022-12-05T00:58:55.743Z,99823.06
2022-12-05T00:59:59.339Z,99823.03
2022-12-05T01:01:12.653Z,99826.50
2022-12-05T01:02:16.940Z,99822.09
2022-12-05T01:03:20.638Z,99828.28
2022-12-05T01:04:25.824Z,99823.03
2022-12-05T01:05:29.165Z,99824.91
2022-12-05T01:06:33.697Z,99823.44
2022-12-05T01:07:38.637Z,99820.81
2022-12-05T01:08:43.432Z,99818.00
2022-12-05T01:09:46.994Z,99812.69
2022-12-05T01:10:56.607Z,99821.56
2022-12-05T01:12:00.263Z,99810.25
2022-12-05T01:13:03.830Z,99811.16
2022-12-05T01:14:07.507Z,99807.69
2022-12-05T01:15:11.334Z,99807.81
2022-12-05T01:16:32.582Z,99803.34
2022-12-05T01:17:36.878Z,99802.44
2022-12-05T01:18:40.995Z,99799.13
2022-12-05T01:19:44.539Z,99799.06
2022-12-05T01:20:49.381Z,99795.47
2022-12-05T01:21:54.180Z,99793.69
2022-12-05T01:22:57.556Z,99797.00
2022-12-05T01:24:01.069Z,99791.81
2022-12-05T01:25:05.459Z,99791.94
2022-12-05T01:26:12.842Z,99792.88
2022-12-05T01:27:16.365Z,99791.94
2022-12-05T01:28:21.350Z,99792.66
2022-12-05T01:29:28.044Z,99792.06
2022-12-05T01:30:31.630Z,99794.63
2022-12-05T01:31:37.818Z,99804.38
2022-12-05T01:32:41.344Z,99791.34
2022-12-05T01:33:44.933Z,99790.41
2022-12-05T01:34:51.800Z,99789.63
2022-12-05T01:35:55.699Z,99780.88
2022-12-05T01:36:59.317Z,99786.19
2022-12-05T01:38:03.584Z,99793.22
2022-12-05T01:39:09.673Z,99798.41
2022-12-05T01:40:13.239Z,99785.22
2022-12-05T01:41:34.224Z,99781.69
2022-12-05T01:42:39.870Z,99767.88
2022-12-05T01:44:03.567Z,99774.78
2022-12-05T01:45:18.498Z,99773.19
2022-12-05T01:46:22.546Z,99778.41
2022-12-05T01:47:29.653Z,99776.78
2022-12-05T01:48:36.622Z,99785.56
2022-12-05T01:49:43.235Z,99779.72
2022-12-05T01:50:51.220Z,99781.50
2022-12-05T01:52:00.660Z,99790.19
2022-12-05T01:53:05.702Z,99796.38
2022-12-05T01:54:10.868Z,99800.59
2022-12-05T01:55:17.723Z,99796.25
2022-12-05T01:56:21.975Z,99792.63
2022-12-05T01:57:26.191Z,99797.88
2022-12-05T01:58:38.246Z,99789.13
2022-12-05T01:59:49.533Z,99796.97
2022-12-05T02:00:53.002Z,99796.16
2022-12-05T02:01:56.710Z,99792.59
2022-12-05T02:03:11.297Z,99790.72
2022-12-05T02:04:15.444Z,99794.31
2022-12-05T02:05:27.186Z,99794.25
2022-12-05T02:06:32.859Z,99795.88
2022-12-05T02:07:41.330Z,99800.13
2022-12-05T02:08:47.071Z,99801.13
2022-12-05T02:09:58.297Z,99799.44
2022-12-05T02:11:02.339Z,99795.06
2022-12-05T02:12:06.543Z,99794.25
2022-12-05T02:13:28.387Z,99796.06
2022-12-05T02:14:59.607Z,99790.19
2022-12-05T02:16:23.684Z,99788.50
2022-12-05T02:17:56.402Z,99793.75
2022-12-05T02:20:17.898Z,99797.91
2022-12-05T02:21:41.786Z,99789.00
2022-12-05T02:23:43.466Z,99794.25
2022-12-05T02:25:18.874Z,99781.84
2022-12-05T02:26:57.806Z,99786.31
2022-12-05T02:29:28.145Z,99774.13
2022-12-05T02:30:27.397Z,99780.34
2022-12-05T02:31:52.815Z,99779.28
2022-12-05T02:33:20.861Z,99772.16
2022-12-05T02:35:03.506Z,99773.81
2022-12-05T02:36:11.199Z,99771.19
2022-12-05T02:38:22.443Z,99772.03
2022-12-05T02:39:31.290Z,99773.88
2022-12-05T02:41:22.076Z,99774.78
2022-12-05T02:42:33.031Z,99773.78
2022-12-05T02:44:02.542Z,99766.97
2022-12-05T02:45:12.680Z,99776.41
2022-12-05T02:46:22.625Z,99769.44
2022-12-05T02:47:36.184Z,99772.94
2022-12-05T02:48:46.553Z,99777.53
2022-12-05T02:49:56.889Z,99781.03
2022-12-05T02:51:04.984Z,99778.31
2022-12-05T02:52:17.543Z,99776.56
2022-12-05T02:53:30.917Z,99784.28
2022-12-05T02:54:48.170Z,99779.97
2022-12-05T02:55:53.618Z,99785.16
2022-12-05T02:57:03.346Z,99782.53
2022-12-05T02:58:28.799Z,99777.22
2022-12-05T02:59:34.828Z,99779.84
2022-12-05T03:00:48.612Z,99776.25
2022-12-05T04:04:11.313Z,99796.63
2022-12-05T04:05:21.235Z,99804.31
2022-12-05T04:06:36.101Z,99807.72
2022-12-05T04:07:43.621Z,99798.09
2022-12-05T04:09:19.428Z,99805.94
2022-12-05T04:10:29.903Z,99808.28
2022-12-05T04:11:40.768Z,99807.25
2022-12-05T04:12:46.945Z,99806.28
2022-12-05T04:14:07.416Z,99802.66
2022-12-05T04:15:24.158Z,99801.66
2022-12-05T04:17:04.731Z,99805.91
2022-12-05T04:18:13.594Z,99806.72
2022-12-05T04:20:27.891Z,99816.28
2022-12-05T04:21:46.233Z,99810.06
2022-12-05T04:22:52.650Z,99811.91
2022-12-05T04:24:17.479Z,99799.63
2022-12-05T04:25:37.436Z,99797.84
2022-12-05T04:26:53.496Z,99801.47
2022-12-05T04:28:34.159Z,99793.53
2022-12-05T04:30:13.585Z,99797.19
2022-12-05T04:31:34.756Z,99797.19
2022-12-05T04:32:55.408Z,99788.44
2022-12-05T04:34:10.288Z,99784.91
2022-12-05T04:35:54.703Z,99782.34
2022-12-05T04:37:20.213Z,99782.53
2022-12-05T04:38:47.189Z,99783.28
2022-12-05T04:40:11.720Z,99784.97
2022-12-05T04:41:36.939Z,99795.41
2022-12-05T04:42:43.578Z,99795.34
2022-12-05T04:43:54.050Z,99793.47
2022-12-05T04:45:10.486Z,99795.22
2022-12-05T04:46:20.610Z,99789.84
2022-12-05T04:47:32.246Z,99782.78
2022-12-05T04:48:43.610Z,99791.56
2022-12-05T04:49:53.577Z,99793.19
2022-12-05T04:51:03.461Z,99794.91
2022-12-05T04:52:12.950Z,99790.53
2022-12-05T04:53:20.620Z,99782.59
2022-12-05T04:54:41.417Z,99779.06
2022-12-05T04:55:50.653Z,99777.44
2022-12-05T04:57:12.765Z,99780.81
2022-12-05T04:58:25.768Z,99782.59
2022-12-05T04:59:30.993Z,99779.91
2022-12-05T05:01:13.506Z,99765.91
2022-12-05T05:02:36.884Z,99773.84
2022-12-05T05:03:54.344Z,99773.78
2022-12-05T05:05:14.109Z,99772.09
2022-12-05T05:06:22.355Z,99771.28
2022-12-05T05:07:28.228Z,99770.25
2022-12-05T05:08:37.247Z,99772.88
2022-12-05T05:09:42.389Z,99768.53
2022-12-05T05:11:23.058Z,99767.94
2022-12-05T05:12:31.404Z,99761.13
2022-12-05T05:13:39.547Z,99758.34
2022-12-05T05:14:44.115Z,99764.59
2022-12-05T05:15:56.802Z,99759.41
2022-12-05T05:17:02.456Z,99758.53
2022-12-05T05:18:06.947Z,99753.09
2022-12-05T05:19:17.628Z,99763.72
2022-12-05T05:20:24.339Z,99767.94
2022-12-05T05:21:39.759Z,99766.13
2022-12-05T05:22:52.922Z,99761.09
2022-12-05T05:23:59.015Z,99760.13
2022-12-05T05:25:04.870Z,99755.78
2022-12-05T05:26:11.536Z,99759.34
2022-12-05T05:27:17.061Z,99752.50
2022-12-05T05:28:25.076Z,99748.03
2022-12-05T05:29:35.874Z,99749.75
2022-12-05T05:30:40.440Z,99750.63
2022-12-05T05:31:46.414Z,99751.63
2022-12-05T05:32:50.964Z,99749.81
2022-12-05T05:33:58.155Z,99746.38
2022-12-05T05:35:02.058Z,99753.28
2022-12-05T05:36:11.178Z,99754.16
2022-12-05T05:37:16.524Z,99743.84
2022-12-05T05:38:28.176Z,99748.16
2022-12-05T05:39:32.729Z,99742.06
2022-12-05T05:40:38.173Z,99755.19
2022-12-05T05:41:58.489Z,99743.81
2022-12-05T05:43:02.328Z,99750.06
2022-12-05T05:44:12.308Z,99747.44
2022-12-05T05:45:18.534Z,99746.44
2022-12-05T05:46:27.940Z,99754.34
2022-12-05T05:47:38.147Z,99751.06
2022-12-05T05:48:42.613Z,99746.72
2022-12-05T05:49:46.407Z,99757.19
2022-12-05T05:50:50.306Z,99751.88
2022-12-05T05:51:57.371Z,99751.09
2022-12-05T05:53:04.850Z,99749.41
2022-12-05T05:54:12.378Z,99743.22
2022-12-05T05:55:16.298Z,99746.72
2022-12-05T05:56:23.013Z,99736.28
2022-12-05T05:57:29.407Z,99744.94
2022-12-05T05:58:34.096Z,99747.50
2022-12-05T05:59:39.351Z,99751.78
2022-12-05T06:00:44.054Z,99764.75
2022-12-05T06:01:48.851Z,99769.97
2022-12-05T06:02:53.414Z,99766.41
2022-12-05T06:03:58.263Z,99768.13
2022-12-05T06:05:02.176Z,99764.56
2022-12-05T06:06:10.522Z,99765.38
2022-12-05T06:07:14.064Z,99765.44
2022-12-05T06:08:17.699Z,99766.34
2022-12-05T06:09:21.194Z,99762.94
2022-12-05T06:10:25.189Z,99766.34
2022-12-05T06:11:28.890Z,99763.72
2022-12-05T06:12:32.240Z,99764.41
2022-12-05T06:13:36.932Z,99766.28
2022-12-05T06:14:43.309Z,99760.25
2022-12-05T06:15:47.863Z,99757.94
2022-12-05T06:16:55.406Z,99755.44
2022-12-05T06:18:00.294Z,99764.19
2022-12-05T06:19:06.294Z,99766.00
2022-12-05T06:20:13.658Z,99772.16
2022-12-05T06:21:20.103Z,99767.91
2022-12-05T06:22:24.389Z,99780.03
2022-12-05T06:23:28.749Z,99776.59
2022-12-05T06:24:32.407Z,99769.72
2022-12-05T06:25:37.646Z,99773.97
2022-12-05T06:26:43.547Z,99777.47
2022-12-05T06:27:47.429Z,99774.78
2022-12-05T06:28:51.464Z,99769.84
2022-12-05T06:29:57.325Z,99760.44
2022-12-05T06:31:09.203Z,99756.13
2022-12-05T06:32:18.091Z,99757.81
2022-12-05T06:33:22.906Z,99767.44
2022-12-05T06:34:26.891Z,99765.56
2022-12-05T06:35:31.375Z,99763.84
2022-12-05T06:36:34.813Z,99777.16
2022-12-05T06:37:39.480Z,99768.38
2022-12-05T06:38:46.449Z,99769.34
2022-12-05T06:39:52.615Z,99768.31
2022-12-05T06:40:58.777Z,99776.06
2022-12-05T06:42:03.999Z,99769.16
2022-12-05T06:43:09.038Z,99774.59
2022-12-05T06:44:13.828Z,99780.69
2022-12-05T06:45:18.699Z,99772.81
2022-12-05T06:46:23.703Z,99774.59
2022-12-05T06:47:27.921Z,99782.34
2022-12-05T06:48:35.153Z,99784.91
2022-12-05T06:49:41.203Z,99777.88
2022-12-05T06:50:54.264Z,99774.41
2022-12-05T06:52:01.191Z,99774.41
2022-12-05T06:53:06.621Z,99775.38
2022-12-05T06:54:16.114Z,99778.75
2022-12-05T06:55:20.904Z,99775.94
2022-12-05T06:56:26.316Z,99781.03
2022-12-05T06:57:31.958Z,99778.41
2022-12-05T06:58:40.035Z,99778.31
2022-12-05T06:59:44.419Z,99777.41
2022-12-05T07:01:07.271Z,99779.94
2022-12-05T07:02:13.980Z,99780.88
2022-12-05T07:03:19.274Z,99779.13
2022-12-05T07:04:24.927Z,99775.44
2022-12-05T07:05:31.800Z,99771.19
2022-12-05T07:06:40.091Z,99772.97
2022-12-05T07:07:45.574Z,99770.34
2022-12-05T07:08:55.059Z,99770.41
2022-12-05T07:09:58.600Z,99770.25
2022-12-05T07:11:07.884Z,99761.56
2022-12-05T07:12:21.280Z,99772.06
2022-12-05T07:13:28.159Z,99776.31
2022-12-05T07:14:51.012Z,99771.78
2022-12-05T07:15:59.523Z,99769.28
2022-12-05T07:17:05.308Z,99765.81
2022-12-05T07:18:09.407Z,99770.88
2022-12-05T07:19:18.665Z,99767.59
2022-12-05T07:20:30.232Z,99766.66
2022-12-05T07:21:46.644Z,99773.63
2022-12-05T07:22:55.974Z,99778.75
2022-12-05T07:24:04.344Z,99772.59
2022-12-05T07:25:08.370Z,99776.06
2022-12-05T07:26:24.486Z,99775.25
2022-12-05T07:27:31.185Z,99773.31
2022-12-05T07:28:39.415Z,99777.72
2022-12-05T07:29:56.356Z,99773.25
2022-12-05T07:31:03.629Z,99772.38
2022-12-05T07:32:10.267Z,99767.03
2022-12-05T07:33:16.824Z,99770.56
2022-12-05T07:34:21.326Z,99770.56
2022-12-05T07:35:25.200Z,99757.81
2022-12-05T07:36:29.768Z,99769.00
2022-12-05T07:37:33.265Z,99772.38
2022-12-05T07:38:39.458Z,99769.66
2022-12-05T07:39:43.487Z,99762.59
2022-12-05T07:40:48.697Z,99758.88
2022-12-05T07:41:52.549Z,99757.13
2022-12-05T07:42:56.347Z,99766.63
2022-12-05T07:44:00.986Z,99752.59
2022-12-05T07:45:05.708Z,99764.88
2022-12-05T07:46:13.070Z,99762.13
2022-12-05T07:47:17.639Z,99769.97
2022-12-05T07:48:21.650Z,99769.97
2022-12-05T07:49:27.052Z,99774.38
2022-12-05T07:50:36.545Z,99767.44
2022-12-05T07:51:44.491Z,99756.06
2022-12-05T07:52:48.706Z,99759.47
2022-12-05T07:53:55.864Z,99759.66
2022-12-05T07:55:10.247Z,99763.22
2022-12-05T07:56:22.053Z,99763.22
2022-12-05T07:57:30.952Z,99758.63
2022-12-05T07:58:37.811Z,99762.03
2022-12-05T07:59:43.318Z,99762.69
2022-12-05T08:00:51.371Z,99765.06
2022-12-05T08:01:55.725Z,99757.31
2022-12-05T08:03:04.801Z,99756.31
2022-12-05T08:04:15.232Z,99757.19
2022-12-05T08:05:19.817Z,99763.34
2022-12-05T08:06:31.754Z,99767.50
2022-12-05T08:07:44.983Z,99771.06
2022-12-05T08:08:50.192Z,99760.66
2022-12-05T08:09:53.655Z,99765.81
2022-12-05T08:10:57.433Z,99768.34
2022-12-05T08:12:00.959Z,99756.97
2022-12-05T08:13:04.511Z,99750.25
2022-12-05T08:14:09.325Z,99760.66
2022-12-05T08:15:12.900Z,99761.41
2022-12-05T08:16:24.817Z,99764.09
2022-12-05T08:17:35.596Z,99753.91
2022-12-05T08:18:40.081Z,99755.81
2022-12-05T08:19:43.886Z,99760.13
2022-12-05T08:20:47.699Z,99755.72
2022-12-05T08:21:52.574Z,99759.28
2022-12-05T08:22:56.707Z,99757.59
2022-12-05T08:24:00.806Z,99760.16
2022-12-05T08:25:05.012Z,99768.88
2022-12-05T08:26:25.807Z,99764.56
2022-12-05T08:27:30.226Z,99767.25
2022-12-05T08:28:35.827Z,99768.88
2022-12-05T08:29:39.862Z,99769.66
2022-12-05T08:30:46.229Z,99771.25
2022-12-05T08:31:53.082Z,99771.25
2022-12-05T08:32:58.336Z,99769.53
2022-12-05T08:34:02.836Z,99770.47
2022-12-05T08:35:09.808Z,99767.84
2022-12-05T08:36:16.003Z,99766.72
2022-12-05T08:37:19.601Z,99775.44
2022-12-05T08:38:23.617Z,99765.88
2022-12-05T08:39:27.563Z,99766.78
2022-12-05T08:40:31.380Z,99771.25
2022-12-05T08:41:35.562Z,99763.38
2022-12-05T08:42:39.069Z,99768.63
2022-12-05T08:43:49.024Z,99764.25
2022-12-05T08:44:53.269Z,99765.91
2022-12-05T08:46:03.267Z,99763.44
2022-12-05T08:47:07.474Z,99767.91
2022-12-05T08:48:11.186Z,99762.59
2022-12-05T08:49:17.676Z,99766.91
2022-12-05T08:50:21.304Z,99771.06
2022-12-05T08:51:26.156Z,99774.50
2022-12-05T08:52:29.813Z,99762.22
2022-12-05T08:53:35.671Z,99765.59
2022-12-05T08:54:43.100Z,99765.50
2022-12-05T08:55:47.084Z,99762.03
2022-12-05T08:56:53.241Z,99769.13
2022-12-05T08:57:58.794Z,99774.94
2022-12-05T08:59:05.658Z,99767.81
2022-12-05T09:00:13.908Z,99761.59
2022-12-05T09:01:21.807Z,99771.03
2022-12-05T09:02:25.436Z,99769.13
2022-12-05T09:03:29.236Z,99768.19
2022-12-05T09:04:32.719Z,99770.75
2022-12-05T09:05:36.536Z,99778.59
2022-12-05T09:06:44.042Z,99774.09
2022-12-05T09:07:50.386Z,99772.19
2022-12-05T09:09:01.013Z,99768.63
2022-12-05T09:10:05.644Z,99763.31
2022-12-05T09:11:19.642Z,99767.53
2022-12-05T09:12:24.218Z,99769.41
2022-12-05T09:13:27.819Z,99765.06
2022-12-05T09:14:33.112Z,99764.03
2022-12-05T09:15:39.743Z,99764.22
2022-12-05T09:16:47.272Z,99763.38
2022-12-05T09:17:50.889Z,99757.25
2022-12-05T09:18:56.434Z,99758.84
2022-12-05T09:19:59.940Z,99750.16
2022-12-05T09:21:20.682Z,99757.97
2022-12-05T09:22:25.077Z,99753.56
2022-12-05T09:23:28.672Z,99760.47
2022-12-05T09:24:34.286Z,99759.53
2022-12-05T09:25:39.447Z,99756.91
2022-12-05T09:26:47.240Z,99761.13
2022-12-05T09:27:51.099Z,99756.69
2022-12-05T09:28:55.506Z,99750.44
2022-12-05T09:29:59.469Z,99756.50
2022-12-05T09:31:09.619Z,99750.28
2022-12-05T09:32:13.337Z,99753.66
2022-12-05T09:33:17.233Z,99750.97
2022-12-05T09:34:20.788Z,99753.66
2022-12-05T09:35:24.559Z,99755.44
2022-12-05T09:36:32.589Z,99746.56
2022-12-05T09:37:40.203Z,99744.97
2022-12-05T09:38:44.968Z,99743.19
2022-12-05T09:39:48.457Z,99747.38
2022-12-05T09:41:44.895Z,99746.47
2022-12-05T09:43:04.719Z,99741.25
2022-12-05T09:44:41.002Z,99746.38
2022-12-05T09:46:18.405Z,99741.13
2022-12-05T09:48:00.163Z,99743.53
2022-12-05T09:49:13.784Z,99733.81
2022-12-05T09:50:47.016Z,99739.81
2022-12-05T09:51:55.409Z,99735.19
2022-12-05T09:53:24.395Z,99733.41
2022-12-05T09:54:33.159Z,99738.59
2022-12-05T09:56:11.631Z,99735.91
2022-12-05T09:57:16.719Z,99731.28
2022-12-05T09:58:30.287Z,99732.81
2022-12-05T09:59:40.314Z,99733.78
2022-12-05T10:00:44.536Z,99725.00
2022-12-05T10:02:24.608Z,99723.88
2022-12-05T10:03:36.095Z,99715.03
2022-12-05T10:05:12.474Z,99726.19
2022-12-05T10:06:35.192Z,99714.72
2022-12-05T10:07:56.779Z,99721.31
2022-12-05T10:09:32.543Z,99706.38
2022-12-05T10:11:01.895Z,99699.00
2022-12-05T10:12:48.919Z,99701.31
2022-12-05T10:14:10.562Z,99708.06
2022-12-05T10:15:48.418Z,99711.97
2022-12-05T10:17:03.368Z,99702.13
2022-12-05T10:18:15.103Z,99710.53
2022-12-05T10:19:34.658Z,99709.38
2022-12-05T10:20:52.360Z,99709.25
2022-12-05T10:22:23.627Z,99703.97
2022-12-05T10:23:57.171Z,99694.34
2022-12-05T10:25:08.956Z,99689.75
2022-12-05T10:26:16.933Z,99693.94
2022-12-05T10:27:39.976Z,99686.00
2022-12-05T10:29:18.895Z,99680.59
2022-12-05T10:30:32.333Z,99696.22
2022-12-05T10:31:55.535Z,99688.94
2022-12-05T10:33:21.689Z,99692.16
2022-12-05T10:34:34.090Z,99690.09
2022-12-05T10:35:56.739Z,99691.69
2022-12-05T10:37:23.761Z,99686.16
2022-12-05T10:38:31.368Z,99679.81
2022-12-05T10:39:41.028Z,99674.41
2022-12-05T10:40:54.229Z,99673.75
2022-12-05T10:41:58.365Z,99667.63
2022-12-05T10:43:02.054Z,99663.47
2022-12-05T10:44:08.053Z,99663.03
2022-12-05T10:45:24.454Z,99661.22
2022-12-05T10:46:28.345Z,99657.41
2022-12-05T10:47:34.295Z,99660.88
2022-12-05T10:48:49.029Z,99665.13
2022-12-05T10:49:56.734Z,99667.63
2022-12-05T10:51:01.142Z,99663.91
2022-12-05T10:52:10.665Z,99672.78
2022-12-05T10:53:53.373Z,99668.00
2022-12-05T10:55:04.639Z,99666.03
2022-12-05T10:56:41.208Z,99668.75
2022-12-05T10:58:18.069Z,99658.13
2022-12-05T10:59:27.317Z,99660.72
2022-12-05T11:00:32.083Z,99655.22
2022-12-05T11:01:51.531Z,99653.28
2022-12-05T11:03:06.326Z,99651.63
2022-12-05T11:04:24.379Z,99642.88
2022-12-05T11:05:31.586Z,99644.53
2022-12-05T11:06:38.473Z,99646.22
2022-12-05T11:07:52.097Z,99652.13
2022-12-05T11:09:19.037Z,99643.22
2022-12-05T11:10:38.092Z,99647.38
2022-12-05T11:11:42.145Z,99654.44
2022-12-05T11:12:46.313Z,99648.13
2022-12-05T11:14:25.146Z,99649.94
2022-12-05T11:15:32.728Z,99651.41
2022-12-05T11:16:39.954Z,99640.78
2022-12-05T11:17:43.980Z,99640.53
2022-12-05T11:18:49.493Z,99638.91
2022-12-05T11:19:53.407Z,99647.47
2022-12-05T11:21:09.143Z,99646.63
2022-12-05T11:22:18.012Z,99635.34
2022-12-05T11:23:31.801Z,99644.06
2022-12-05T11:24:39.761Z,99635.03
2022-12-05T11:25:43.341Z,99632.31
2022-12-05T11:26:47.144Z,99629.47
2022-12-05T11:27:50.967Z,99625.81
2022-12-05T11:28:54.729Z,99631.91
2022-12-05T11:30:19.499Z,99631.09
2022-12-05T11:31:31.748Z,99628.38
2022-12-05T11:32:35.742Z,99626.53
2022-12-05T11:33:39.896Z,99626.38
2022-12-05T11:35:07.816Z,99630.72
2022-12-05T11:36:23.315Z,99632.41
2022-12-05T11:37:45.048Z,99629.78
2022-12-05T11:38:49.952Z,99623.59
2022-12-05T11:39:54.245Z,99626.06
2022-12-05T11:41:29.863Z,99624.19
2022-12-05T11:43:46.908Z,99625.13
2022-12-05T11:45:24.451Z,99617.06
2022-12-05T11:47:16.671Z,99614.94
2022-12-05T11:48:36.932Z,99620.47
2022-12-05T11:50:21.908Z,99619.38
2022-12-05T11:51:50.828Z,99613.25
2022-12-05T11:53:13.302Z,99609.53
2022-12-05T11:55:06.084Z,99616.69
2022-12-05T11:56:32.920Z,99607.19
2022-12-05T11:58:27.872Z,99608.81
2022-12-05T12:00:11.592Z,99610.22
2022-12-05T12:01:42.736Z,99610.16
2022-12-05T12:03:35.392Z,99598.47
2022-12-05T12:05:15.476Z,99589.06
2022-12-05T12:06:52.241Z,99596.09
2022-12-05T12:08:25.358Z,99597.53
2022-12-05T12:09:57.059Z,99592.19
2022-12-05T12:11:09.082Z,99597.16
2022-12-05T12:12:40.643Z,99589.06
2022-12-05T12:14:16.601Z,99593.25
2022-12-05T12:16:17.555Z,99579.03
2022-12-05T12:17:53.626Z,99584.25
2022-12-05T12:19:33.278Z,99587.56
2022-12-05T12:21:03.330Z,99582.03
2022-12-05T12:22:19.893Z,99590.59
2022-12-05T12:24:11.670Z,99582.59
2022-12-05T12:25:42.760Z,99591.34
2022-12-05T12:27:16.855Z,99585.00
2022-12-05T12:29:21.103Z,99576.13
2022-12-05T12:30:58.923Z,99579.44
2022-12-05T12:32:33.474Z,99584.22
2022-12-05T12:34:07.801Z,99584.00
2022-12-05T12:35:15.121Z,99584.75
2022-12-05T12:36:51.107Z,99585.53
2022-12-05T12:38:30.942Z,99579.94
2022-12-05T12:39:55.036Z,99579.84
2022-12-05T12:42:02.524Z,99575.56
2022-12-05T12:45:52.027Z,99579.59
2022-12-05T12:47:17.316Z,99581.34
2022-12-05T12:49:17.524Z,99581.06
2022-12-05T12:50:31.133Z,99584.88
2022-12-05T12:51:40.163Z,99577.56
2022-12-05T12:53:33.356Z,99574.94
2022-12-05T12:55:05.008Z,99571.44
2022-12-05T12:57:23.876Z,99579.28
2022-12-05T12:59:24.900Z,99572.03
2022-12-05T13:01:17.927Z,99578.94
2022-12-05T13:02:51.579Z,99580.81
2022-12-05T13:04:07.998Z,99576.53
2022-12-05T13:05:36.423Z,99574.69
2022-12-05T13:06:55.262Z,99572.13
2022-12-05T13:08:21.724Z,99566.03
2022-12-05T13:09:46.173Z,99565.94
2022-12-05T13:11:05.542Z,99573.97
2022-12-05T13:12:17.464Z,99569.47
2022-12-05T13:13:27.848Z,99568.69
2022-12-05T13:14:35.396Z,99565.28
2022-12-05T13:15:58.606Z,99571.34
2022-12-05T13:17:05.579Z,99565.19
2022-12-05T13:18:19.686Z,99559.06
2022-12-05T13:19:47.989Z,99564.19
2022-12-05T13:20:59.116Z,99564.19
2022-12-05T13:22:04.811Z,99564.94
2022-12-05T13:23:15.682Z,99548.13
2022-12-05T13:24:26.500Z,99555.13
2022-12-05T13:25:36.055Z,99549.84
2022-12-05T13:26:49.489Z,99547.19
2022-12-05T13:28:03.702Z,99554.09
2022-12-05T13:29:08.216Z,99552.16
2022-12-05T13:30:19.900Z,99542.50
2022-12-05T13:31:40.916Z,99544.97
2022-12-05T13:32:55.077Z,99553.84
2022-12-05T13:33:58.806Z,99556.41
2022-12-05T13:35:41.267Z,99561.69
2022-12-05T13:37:03.253Z,99555.56
2022-12-05T13:38:40.704Z,99554.94
2022-12-05T13:40:13.865Z,99565.53
2022-12-05T13:41:39.811Z,99555.22
2022-12-05T13:42:45.129Z,99557.97
2022-12-05T13:44:05.512Z,99559.81
2022-12-05T13:45:20.720Z,99563.31
2022-12-05T13:46:35.632Z,99559.81
2022-12-05T13:47:59.199Z,99554.53
2022-12-05T13:49:33.616Z,99556.31
2022-12-05T13:51:23.597Z,99549.22
2022-12-05T13:52:32.572Z,99552.06
2022-12-05T13:53:50.651Z,99558.97
2022-12-05T13:55:35.933Z,99565.94
2022-12-05T13:56:54.931Z,99561.59
2022-12-05T13:58:04.275Z,99558.97
2022-12-05T13:59:11.459Z,99560.66
2022-12-05T14:00:15.794Z,99562.47
2022-12-05T14:01:35.474Z,99561.59
2022-12-05T14:02:44.032Z,99565.94
2022-12-05T14:03:47.741Z,99558.09
2022-12-05T14:04:51.621Z,99559.13
2022-12-05T14:05:55.636Z,99559.22
2022-12-05T14:07:00.767Z,99555.97
2022-12-05T14:08:24.700Z,99558.53
2022-12-05T14:09:49.092Z,99560.22
2022-12-05T14:10:52.451Z,99554.88
2022-12-05T14:12:12.557Z,99562.72
2022-12-05T14:13:16.300Z,99554.94
2022-12-05T14:14:57.188Z,99566.47
2022-12-05T14:16:24.481Z,99556.03
2022-12-05T14:17:41.614Z,99558.78
2022-12-05T14:18:53.026Z,99557.81
2022-12-05T14:20:43.226Z,99551.69
2022-12-05T14:22:42.744Z,99557.88
2022-12-05T14:24:25.505Z,99558.06
2022-12-05T14:26:06.997Z,99565.81
2022-12-05T14:27:42.117Z,99564.97
2022-12-05T14:29:04.013Z,99561.47
2022-12-05T14:30:20.058Z,99564.06
2022-12-05T14:31:42.549Z,99563.13
2022-12-05T14:32:46.662Z,99560.47
2022-12-05T14:34:26.568Z,99569.19
2022-12-05T14:35:42.368Z,99567.31
2022-12-05T14:37:15.370Z,99564.53
2022-12-05T14:38:34.331Z,99565.28
2022-12-05T14:39:55.328Z,99560.00
2022-12-05T14:41:48.092Z,99558.09
2022-12-05T14:43:10.240Z,99559.91
2022-12-05T14:44:21.178Z,99560.75
2022-12-05T14:45:48.274Z,99563.31
2022-12-05T14:46:52.309Z,99561.53
2022-12-05T14:48:03.352Z,99564.94
2022-12-05T14:49:52.805Z,99568.34
2022-12-05T14:50:59.140Z,99567.50
2022-12-05T14:52:20.673Z,99563.91
2022-12-05T14:53:40.764Z,99569.13
2022-12-05T14:54:44.379Z,99565.53
2022-12-05T14:56:16.596Z,99570.75
2022-12-05T14:57:21.444Z,99566.47
2022-12-05T14:58:50.931Z,99574.16
2022-12-05T15:00:10.355Z,99568.78
2022-12-05T15:01:31.510Z,99562.72
2022-12-05T15:02:46.980Z,99571.44
2022-12-05T15:03:59.447Z,99569.72
2022-12-05T15:05:30.532Z,99563.41
2022-12-05T15:07:10.934Z,99566.91
2022-12-05T15:08:22.279Z,99562.50
2022-12-05T15:09:58.678Z,99565.03
2022-12-05T15:11:04.516Z,99568.53
2022-12-05T15:12:19.962Z,99565.88
2022-12-05T15:13:30.853Z,99565.13
2022-12-05T15:15:08.520Z,99566.84
2022-12-05T15:16:22.911Z,99557.19
2022-12-05T15:18:00.304Z,99553.66
2022-12-05T15:19:17.783Z,99557.25
2022-12-05T15:21:02.834Z,99567.84
2022-12-05T15:22:16.423Z,99556.50
2022-12-05T15:24:02.824Z,99556.50
2022-12-05T15:25:36.518Z,99559.13
2022-12-05T15:26:59.000Z,99554.88
2022-12-05T15:28:19.769Z,99559.31
2022-12-05T15:29:25.985Z,99550.53
2022-12-05T15:30:32.733Z,99559.31
2022-12-05T15:31:48.435Z,99560.31
2022-12-05T15:32:59.038Z,99551.63
2022-12-05T15:34:15.592Z,99551.72
2022-12-05T15:35:21.013Z,99556.31